sensor_id;sensor_type;location;lat;lon;timestamp;P1;durP1;ratioP1;P2;durP2;ratioP2
42084;SDS011;27746;52.228;20.890;2024-01-30T00:01:03;44.20;;;23.00;;
42084;SDS011;27746;52.228;20.890;2024-01-30T00:03:30;43.85;;;23.70;;
42084;SDS011;27746;52.228;20.890;2024-01-30T00:05:57;47.28;;;24.15;;
42084;SDS011;27746;52.228;20.890;2024-01-30T00:08:24;53.47;;;27.75;;
42084;SDS011;27746;52.228;20.890;2024-01-30T00:10:52;52.20;;;24.63;;
42084;SDS011;27746;52.228;20.890;2024-01-30T00:13:19;51.95;;;26.88;;
42084;SDS011;27746;52.228;20.890;2024-01-30T00:15:46;46.08;;;23.23;;
42084;SDS011;27746;52.228;20.890;2024-01-30T00:18:13;53.45;;;26.73;;
42084;SDS011;27746;52.228;20.890;2024-01-30T00:20:39;49.72;;;25.33;;
42084;SDS011;27746;52.228;20.890;2024-01-30T00:23:07;51.60;;;23.67;;
42084;SDS011;27746;52.228;20.890;2024-01-30T00:25:34;49.40;;;23.73;;
42084;SDS011;27746;52.228;20.890;2024-01-30T00:28:03;57.13;;;26.40;;
42084;SDS011;27746;52.228;20.890;2024-01-30T00:30:30;47.58;;;23.35;;
42084;SDS011;27746;52.228;20.890;2024-01-30T00:32:57;52.13;;;26.65;;
42084;SDS011;27746;52.228;20.890;2024-01-30T00:35:24;47.50;;;23.98;;
42084;SDS011;27746;52.228;20.890;2024-01-30T00:37:52;53.40;;;25.48;;
42084;SDS011;27746;52.228;20.890;2024-01-30T00:40:18;47.75;;;24.42;;
42084;SDS011;27746;52.228;20.890;2024-01-30T00:42:45;54.42;;;25.48;;
42084;SDS011;27746;52.228;20.890;2024-01-30T00:45:14;51.25;;;24.42;;
42084;SDS011;27746;52.228;20.890;2024-01-30T00:47:41;51.90;;;24.38;;
42084;SDS011;27746;52.228;20.890;2024-01-30T00:50:08;51.65;;;23.73;;
42084;SDS011;27746;52.228;20.890;2024-01-30T00:52:35;47.10;;;25.08;;
42084;SDS011;27746;52.228;20.890;2024-01-30T00:55:04;51.08;;;24.90;;
42084;SDS011;27746;52.228;20.890;2024-01-30T00:57:31;47.38;;;24.48;;
42084;SDS011;27746;52.228;20.890;2024-01-30T00:59:58;47.38;;;23.42;;
42084;SDS011;27746;52.228;20.890;2024-01-30T01:02:26;49.58;;;26.17;;
42084;SDS011;27746;52.228;20.890;2024-01-30T01:04:53;51.25;;;23.60;;
42084;SDS011;27746;52.228;20.890;2024-01-30T01:07:20;48.97;;;24.33;;
42084;SDS011;27746;52.228;20.890;2024-01-30T01:09:47;55.15;;;24.20;;
42084;SDS011;27746;52.228;20.890;2024-01-30T01:12:14;52.03;;;25.33;;
42084;SDS011;27746;52.228;20.890;2024-01-30T01:14:41;54.55;;;25.38;;
42084;SDS011;27746;52.228;20.890;2024-01-30T01:17:08;46.83;;;24.75;;
42084;SDS011;27746;52.228;20.890;2024-01-30T01:19:38;48.05;;;23.70;;
42084;SDS011;27746;52.228;20.890;2024-01-30T01:22:05;47.15;;;23.52;;
42084;SDS011;27746;52.228;20.890;2024-01-30T01:24:37;47.33;;;24.25;;
42084;SDS011;27746;52.228;20.890;2024-01-30T01:27:04;48.53;;;24.80;;
42084;SDS011;27746;52.228;20.890;2024-01-30T01:29:31;49.50;;;23.80;;
42084;SDS011;27746;52.228;20.890;2024-01-30T01:31:58;52.88;;;25.27;;
42084;SDS011;27746;52.228;20.890;2024-01-30T01:34:25;49.92;;;25.92;;
42084;SDS011;27746;52.228;20.890;2024-01-30T01:36:53;52.35;;;25.10;;
42084;SDS011;27746;52.228;20.890;2024-01-30T01:39:20;53.00;;;24.73;;
42084;SDS011;27746;52.228;20.890;2024-01-30T01:41:48;56.40;;;24.33;;
42084;SDS011;27746;52.228;20.890;2024-01-30T01:44:15;41.78;;;22.13;;
42084;SDS011;27746;52.228;20.890;2024-01-30T01:46:43;48.47;;;26.25;;
42084;SDS011;27746;52.228;20.890;2024-01-30T01:49:10;48.25;;;24.00;;
42084;SDS011;27746;52.228;20.890;2024-01-30T01:51:37;52.53;;;24.98;;
42084;SDS011;27746;52.228;20.890;2024-01-30T01:54:07;47.20;;;23.90;;
42084;SDS011;27746;52.228;20.890;2024-01-30T01:56:35;52.03;;;23.08;;
42084;SDS011;27746;52.228;20.890;2024-01-30T01:59:04;43.75;;;24.30;;
42084;SDS011;27746;52.228;20.890;2024-01-30T02:01:33;49.92;;;22.20;;
42084;SDS011;27746;52.228;20.890;2024-01-30T02:04:00;47.58;;;23.98;;
42084;SDS011;27746;52.228;20.890;2024-01-30T02:06:27;50.10;;;23.98;;
42084;SDS011;27746;52.228;20.890;2024-01-30T02:08:54;54.20;;;24.83;;
42084;SDS011;27746;52.228;20.890;2024-01-30T02:11:22;47.67;;;23.35;;
42084;SDS011;27746;52.228;20.890;2024-01-30T02:13:50;49.55;;;24.92;;
42084;SDS011;27746;52.228;20.890;2024-01-30T02:16:18;49.58;;;24.05;;
42084;SDS011;27746;52.228;20.890;2024-01-30T02:18:45;51.42;;;23.92;;
42084;SDS011;27746;52.228;20.890;2024-01-30T02:21:14;48.50;;;24.27;;
42084;SDS011;27746;52.228;20.890;2024-01-30T02:23:43;41.92;;;23.00;;
42084;SDS011;27746;52.228;20.890;2024-01-30T02:26:10;46.78;;;23.27;;
42084;SDS011;27746;52.228;20.890;2024-01-30T02:28:37;48.25;;;23.90;;
42084;SDS011;27746;52.228;20.890;2024-01-30T02:31:04;45.85;;;22.35;;
42084;SDS011;27746;52.228;20.890;2024-01-30T02:33:31;50.70;;;23.52;;
42084;SDS011;27746;52.228;20.890;2024-01-30T02:35:59;49.35;;;24.45;;
42084;SDS011;27746;52.228;20.890;2024-01-30T02:38:27;55.58;;;24.15;;
42084;SDS011;27746;52.228;20.890;2024-01-30T02:40:54;51.42;;;23.10;;
42084;SDS011;27746;52.228;20.890;2024-01-30T02:43:21;45.78;;;23.52;;
42084;SDS011;27746;52.228;20.890;2024-01-30T02:45:48;46.10;;;21.90;;
42084;SDS011;27746;52.228;20.890;2024-01-30T02:48:15;48.67;;;22.35;;
42084;SDS011;27746;52.228;20.890;2024-01-30T02:50:42;53.22;;;24.25;;
42084;SDS011;27746;52.228;20.890;2024-01-30T02:53:09;51.42;;;25.50;;
42084;SDS011;27746;52.228;20.890;2024-01-30T02:55:37;46.50;;;23.38;;
42084;SDS011;27746;52.228;20.890;2024-01-30T02:58:04;46.55;;;21.98;;
42084;SDS011;27746;52.228;20.890;2024-01-30T03:00:31;47.30;;;23.48;;
42084;SDS011;27746;52.228;20.890;2024-01-30T03:02:58;46.97;;;22.55;;
42084;SDS011;27746;52.228;20.890;2024-01-30T03:05:25;51.55;;;22.92;;
42084;SDS011;27746;52.228;20.890;2024-01-30T03:07:52;43.17;;;21.90;;
42084;SDS011;27746;52.228;20.890;2024-01-30T03:10:19;49.40;;;23.55;;
42084;SDS011;27746;52.228;20.890;2024-01-30T03:12:47;47.17;;;21.58;;
42084;SDS011;27746;52.228;20.890;2024-01-30T03:15:14;48.10;;;23.77;;
42084;SDS011;27746;52.228;20.890;2024-01-30T03:17:41;42.28;;;22.20;;
42084;SDS011;27746;52.228;20.890;2024-01-30T03:20:08;43.58;;;23.45;;
42084;SDS011;27746;52.228;20.890;2024-01-30T03:22:35;43.45;;;21.88;;
42084;SDS011;27746;52.228;20.890;2024-01-30T03:25:02;44.10;;;22.75;;
42084;SDS011;27746;52.228;20.890;2024-01-30T03:27:30;46.10;;;21.67;;
42084;SDS011;27746;52.228;20.890;2024-01-30T03:29:58;43.72;;;22.27;;
42084;SDS011;27746;52.228;20.890;2024-01-30T03:32:25;47.58;;;21.52;;
42084;SDS011;27746;52.228;20.890;2024-01-30T03:34:51;47.80;;;22.55;;
42084;SDS011;27746;52.228;20.890;2024-01-30T03:37:18;46.25;;;21.67;;
42084;SDS011;27746;52.228;20.890;2024-01-30T03:39:45;47.47;;;22.23;;
42084;SDS011;27746;52.228;20.890;2024-01-30T03:42:12;48.63;;;23.13;;
42084;SDS011;27746;52.228;20.890;2024-01-30T03:44:39;47.90;;;21.42;;
42084;SDS011;27746;52.228;20.890;2024-01-30T03:47:09;43.47;;;22.63;;
42084;SDS011;27746;52.228;20.890;2024-01-30T03:49:36;45.83;;;22.08;;
42084;SDS011;27746;52.228;20.890;2024-01-30T03:52:03;46.70;;;23.08;;
42084;SDS011;27746;52.228;20.890;2024-01-30T03:54:30;46.75;;;22.67;;
42084;SDS011;27746;52.228;20.890;2024-01-30T03:56:57;45.63;;;22.38;;
42084;SDS011;27746;52.228;20.890;2024-01-30T03:59:24;44.13;;;21.63;;
42084;SDS011;27746;52.228;20.890;2024-01-30T04:01:51;46.55;;;21.88;;
42084;SDS011;27746;52.228;20.890;2024-01-30T04:04:19;47.05;;;21.92;;
42084;SDS011;27746;52.228;20.890;2024-01-30T04:06:46;44.42;;;21.48;;
42084;SDS011;27746;52.228;20.890;2024-01-30T04:09:13;40.88;;;22.05;;
42084;SDS011;27746;52.228;20.890;2024-01-30T04:11:40;47.38;;;22.05;;
42084;SDS011;27746;52.228;20.890;2024-01-30T04:14:07;48.67;;;22.55;;
42084;SDS011;27746;52.228;20.890;2024-01-30T04:16:34;47.47;;;21.27;;
42084;SDS011;27746;52.228;20.890;2024-01-30T04:19:02;43.08;;;20.73;;
42084;SDS011;27746;52.228;20.890;2024-01-30T04:21:30;41.22;;;20.90;;
42084;SDS011;27746;52.228;20.890;2024-01-30T04:23:57;45.13;;;21.65;;
42084;SDS011;27746;52.228;20.890;2024-01-30T04:26:24;42.65;;;21.27;;
42084;SDS011;27746;52.228;20.890;2024-01-30T04:28:51;45.22;;;20.60;;
42084;SDS011;27746;52.228;20.890;2024-01-30T04:31:18;44.10;;;22.63;;
42084;SDS011;27746;52.228;20.890;2024-01-30T04:33:44;41.88;;;21.50;;
42084;SDS011;27746;52.228;20.890;2024-01-30T04:36:11;46.97;;;23.05;;
42084;SDS011;27746;52.228;20.890;2024-01-30T04:38:40;45.22;;;22.20;;
42084;SDS011;27746;52.228;20.890;2024-01-30T04:41:07;44.88;;;21.88;;
42084;SDS011;27746;52.228;20.890;2024-01-30T04:43:34;47.55;;;22.45;;
42084;SDS011;27746;52.228;20.890;2024-01-30T04:46:01;45.65;;;21.17;;
42084;SDS011;27746;52.228;20.890;2024-01-30T04:48:28;42.08;;;21.02;;
42084;SDS011;27746;52.228;20.890;2024-01-30T04:50:54;48.03;;;21.45;;
42084;SDS011;27746;52.228;20.890;2024-01-30T04:53:21;42.22;;;21.38;;
42084;SDS011;27746;52.228;20.890;2024-01-30T04:55:48;45.05;;;21.35;;
42084;SDS011;27746;52.228;20.890;2024-01-30T04:58:15;40.92;;;20.60;;
42084;SDS011;27746;52.228;20.890;2024-01-30T05:00:42;40.95;;;20.25;;
42084;SDS011;27746;52.228;20.890;2024-01-30T05:03:11;44.25;;;20.50;;
42084;SDS011;27746;52.228;20.890;2024-01-30T05:05:38;49.25;;;21.80;;
42084;SDS011;27746;52.228;20.890;2024-01-30T05:08:05;49.72;;;22.65;;
42084;SDS011;27746;52.228;20.890;2024-01-30T05:10:32;48.38;;;22.27;;
42084;SDS011;27746;52.228;20.890;2024-01-30T05:13:01;45.25;;;20.70;;
42084;SDS011;27746;52.228;20.890;2024-01-30T05:15:27;43.85;;;20.52;;
42084;SDS011;27746;52.228;20.890;2024-01-30T05:17:54;45.03;;;22.95;;
42084;SDS011;27746;52.228;20.890;2024-01-30T05:20:21;41.13;;;20.08;;
42084;SDS011;27746;52.228;20.890;2024-01-30T05:22:48;36.22;;;20.95;;
42084;SDS011;27746;52.228;20.890;2024-01-30T05:25:15;44.70;;;21.30;;
42084;SDS011;27746;52.228;20.890;2024-01-30T05:27:42;44.08;;;23.13;;
42084;SDS011;27746;52.228;20.890;2024-01-30T05:30:11;45.20;;;21.33;;
42084;SDS011;27746;52.228;20.890;2024-01-30T05:32:38;41.60;;;21.70;;
42084;SDS011;27746;52.228;20.890;2024-01-30T05:35:05;43.85;;;21.23;;
42084;SDS011;27746;52.228;20.890;2024-01-30T05:37:33;43.78;;;20.92;;
42084;SDS011;27746;52.228;20.890;2024-01-30T05:39:59;44.40;;;20.83;;
42084;SDS011;27746;52.228;20.890;2024-01-30T05:42:27;44.92;;;21.55;;
42084;SDS011;27746;52.228;20.890;2024-01-30T05:44:54;45.92;;;21.38;;
42084;SDS011;27746;52.228;20.890;2024-01-30T05:47:23;43.30;;;19.90;;
42084;SDS011;27746;52.228;20.890;2024-01-30T05:49:50;42.05;;;20.00;;
42084;SDS011;27746;52.228;20.890;2024-01-30T05:52:17;45.05;;;19.98;;
42084;SDS011;27746;52.228;20.890;2024-01-30T05:54:45;45.88;;;20.85;;
42084;SDS011;27746;52.228;20.890;2024-01-30T05:57:11;41.72;;;21.48;;
42084;SDS011;27746;52.228;20.890;2024-01-30T05:59:38;41.10;;;20.45;;
42084;SDS011;27746;52.228;20.890;2024-01-30T06:02:05;42.92;;;20.92;;
42084;SDS011;27746;52.228;20.890;2024-01-30T06:04:33;44.05;;;22.13;;
42084;SDS011;27746;52.228;20.890;2024-01-30T06:07:00;46.53;;;22.02;;
42084;SDS011;27746;52.228;20.890;2024-01-30T06:09:27;43.17;;;22.60;;
42084;SDS011;27746;52.228;20.890;2024-01-30T06:11:55;44.72;;;20.50;;
42084;SDS011;27746;52.228;20.890;2024-01-30T06:14:21;44.05;;;20.55;;
42084;SDS011;27746;52.228;20.890;2024-01-30T06:16:48;43.15;;;21.55;;
42084;SDS011;27746;52.228;20.890;2024-01-30T06:19:16;42.35;;;21.45;;
42084;SDS011;27746;52.228;20.890;2024-01-30T06:21:44;40.92;;;21.33;;
42084;SDS011;27746;52.228;20.890;2024-01-30T06:24:11;47.17;;;21.73;;
42084;SDS011;27746;52.228;20.890;2024-01-30T06:26:37;39.30;;;20.20;;
42084;SDS011;27746;52.228;20.890;2024-01-30T06:29:04;39.47;;;21.27;;
42084;SDS011;27746;52.228;20.890;2024-01-30T06:31:32;41.33;;;20.83;;
42084;SDS011;27746;52.228;20.890;2024-01-30T06:33:59;42.13;;;20.60;;
42084;SDS011;27746;52.228;20.890;2024-01-30T06:36:26;43.88;;;21.08;;
42084;SDS011;27746;52.228;20.890;2024-01-30T06:38:54;50.10;;;23.38;;
42084;SDS011;27746;52.228;20.890;2024-01-30T06:41:21;39.17;;;19.80;;
42084;SDS011;27746;52.228;20.890;2024-01-30T06:43:48;42.90;;;21.40;;
42084;SDS011;27746;52.228;20.890;2024-01-30T06:46:15;45.00;;;22.70;;
42084;SDS011;27746;52.228;20.890;2024-01-30T06:48:42;45.00;;;22.92;;
42084;SDS011;27746;52.228;20.890;2024-01-30T06:51:09;43.75;;;22.77;;
42084;SDS011;27746;52.228;20.890;2024-01-30T06:53:36;44.88;;;22.15;;
42084;SDS011;27746;52.228;20.890;2024-01-30T06:56:05;44.80;;;21.30;;
42084;SDS011;27746;52.228;20.890;2024-01-30T06:58:32;46.35;;;22.58;;
42084;SDS011;27746;52.228;20.890;2024-01-30T07:00:59;44.15;;;21.50;;
42084;SDS011;27746;52.228;20.890;2024-01-30T07:03:27;46.40;;;21.50;;
42084;SDS011;27746;52.228;20.890;2024-01-30T07:05:54;44.05;;;21.60;;
42084;SDS011;27746;52.228;20.890;2024-01-30T07:08:21;40.58;;;20.63;;
42084;SDS011;27746;52.228;20.890;2024-01-30T07:10:47;45.88;;;20.20;;
42084;SDS011;27746;52.228;20.890;2024-01-30T07:13:16;48.78;;;21.33;;
42084;SDS011;27746;52.228;20.890;2024-01-30T07:15:43;41.72;;;19.33;;
42084;SDS011;27746;52.228;20.890;2024-01-30T07:18:09;45.72;;;20.17;;
42084;SDS011;27746;52.228;20.890;2024-01-30T07:20:38;42.65;;;20.75;;
42084;SDS011;27746;52.228;20.890;2024-01-30T07:23:07;42.50;;;20.85;;
42084;SDS011;27746;52.228;20.890;2024-01-30T07:25:36;46.08;;;21.25;;
42084;SDS011;27746;52.228;20.890;2024-01-30T07:28:03;40.88;;;21.17;;
42084;SDS011;27746;52.228;20.890;2024-01-30T07:30:32;47.15;;;20.52;;
42084;SDS011;27746;52.228;20.890;2024-01-30T07:32:59;46.53;;;21.08;;
42084;SDS011;27746;52.228;20.890;2024-01-30T07:35:25;40.65;;;21.67;;
42084;SDS011;27746;52.228;20.890;2024-01-30T07:37:52;42.42;;;21.00;;
42084;SDS011;27746;52.228;20.890;2024-01-30T07:40:19;42.10;;;19.85;;
42084;SDS011;27746;52.228;20.890;2024-01-30T07:42:47;42.60;;;18.98;;
42084;SDS011;27746;52.228;20.890;2024-01-30T07:45:14;41.90;;;19.83;;
42084;SDS011;27746;52.228;20.890;2024-01-30T07:47:42;41.47;;;20.17;;
42084;SDS011;27746;52.228;20.890;2024-01-30T07:50:09;36.85;;;19.88;;
42084;SDS011;27746;52.228;20.890;2024-01-30T07:52:37;38.28;;;18.83;;
42084;SDS011;27746;52.228;20.890;2024-01-30T07:55:05;42.08;;;18.92;;
42084;SDS011;27746;52.228;20.890;2024-01-30T07:57:33;35.05;;;17.10;;
42084;SDS011;27746;52.228;20.890;2024-01-30T08:00:00;34.95;;;17.88;;
42084;SDS011;27746;52.228;20.890;2024-01-30T08:02:28;36.08;;;17.77;;
42084;SDS011;27746;52.228;20.890;2024-01-30T08:04:56;36.20;;;17.40;;
42084;SDS011;27746;52.228;20.890;2024-01-30T08:07:23;34.70;;;16.58;;
42084;SDS011;27746;52.228;20.890;2024-01-30T08:09:50;32.50;;;16.00;;
42084;SDS011;27746;52.228;20.890;2024-01-30T08:12:16;34.85;;;17.00;;
42084;SDS011;27746;52.228;20.890;2024-01-30T08:14:43;31.05;;;16.25;;
42084;SDS011;27746;52.228;20.890;2024-01-30T08:17:10;30.98;;;15.68;;
42084;SDS011;27746;52.228;20.890;2024-01-30T08:19:37;32.65;;;16.42;;
42084;SDS011;27746;52.228;20.890;2024-01-30T08:22:05;31.48;;;15.95;;
42084;SDS011;27746;52.228;20.890;2024-01-30T08:24:32;32.90;;;15.75;;
42084;SDS011;27746;52.228;20.890;2024-01-30T08:26:59;32.42;;;14.07;;
42084;SDS011;27746;52.228;20.890;2024-01-30T08:29:27;29.15;;;15.23;;
42084;SDS011;27746;52.228;20.890;2024-01-30T08:31:54;31.77;;;16.38;;
42084;SDS011;27746;52.228;20.890;2024-01-30T08:34:21;28.58;;;15.02;;
42084;SDS011;27746;52.228;20.890;2024-01-30T08:36:48;31.40;;;15.43;;
42084;SDS011;27746;52.228;20.890;2024-01-30T08:39:16;27.13;;;14.75;;
42084;SDS011;27746;52.228;20.890;2024-01-30T08:41:43;25.77;;;15.20;;
42084;SDS011;27746;52.228;20.890;2024-01-30T08:44:10;29.08;;;14.60;;
42084;SDS011;27746;52.228;20.890;2024-01-30T08:46:37;28.65;;;14.75;;
42084;SDS011;27746;52.228;20.890;2024-01-30T08:49:03;25.30;;;14.13;;
42084;SDS011;27746;52.228;20.890;2024-01-30T08:51:31;26.70;;;14.48;;
42084;SDS011;27746;52.228;20.890;2024-01-30T08:53:58;25.00;;;13.52;;
42084;SDS011;27746;52.228;20.890;2024-01-30T08:56:27;27.55;;;12.80;;
42084;SDS011;27746;52.228;20.890;2024-01-30T08:58:54;25.50;;;13.13;;
42084;SDS011;27746;52.228;20.890;2024-01-30T09:01:21;20.50;;;13.00;;
42084;SDS011;27746;52.228;20.890;2024-01-30T09:03:48;22.60;;;12.60;;
42084;SDS011;27746;52.228;20.890;2024-01-30T09:06:15;19.45;;;11.88;;
42084;SDS011;27746;52.228;20.890;2024-01-30T09:08:41;19.52;;;10.93;;
42084;SDS011;27746;52.228;20.890;2024-01-30T09:11:08;21.85;;;11.20;;
42084;SDS011;27746;52.228;20.890;2024-01-30T09:13:37;25.13;;;12.48;;
42084;SDS011;27746;52.228;20.890;2024-01-30T09:16:04;18.52;;;11.65;;
42084;SDS011;27746;52.228;20.890;2024-01-30T09:18:31;22.27;;;10.80;;
42084;SDS011;27746;52.228;20.890;2024-01-30T09:20:58;20.67;;;10.95;;
42084;SDS011;27746;52.228;20.890;2024-01-30T09:23:26;23.27;;;11.63;;
42084;SDS011;27746;52.228;20.890;2024-01-30T09:25:54;23.02;;;11.20;;
42084;SDS011;27746;52.228;20.890;2024-01-30T09:28:21;18.77;;;11.73;;
42084;SDS011;27746;52.228;20.890;2024-01-30T09:30:49;20.17;;;12.00;;
42084;SDS011;27746;52.228;20.890;2024-01-30T09:33:17;19.17;;;11.35;;
42084;SDS011;27746;52.228;20.890;2024-01-30T09:35:44;15.13;;;10.18;;
42084;SDS011;27746;52.228;20.890;2024-01-30T09:38:11;16.42;;;9.82;;
42084;SDS011;27746;52.228;20.890;2024-01-30T09:40:38;18.98;;;11.23;;
42084;SDS011;27746;52.228;20.890;2024-01-30T09:43:06;16.70;;;9.90;;
42084;SDS011;27746;52.228;20.890;2024-01-30T09:45:34;20.35;;;10.60;;
42084;SDS011;27746;52.228;20.890;2024-01-30T09:48:03;22.58;;;10.55;;
42084;SDS011;27746;52.228;20.890;2024-01-30T09:50:30;18.58;;;10.93;;
42084;SDS011;27746;52.228;20.890;2024-01-30T09:52:58;15.98;;;10.13;;
42084;SDS011;27746;52.228;20.890;2024-01-30T09:55:26;17.27;;;9.55;;
42084;SDS011;27746;52.228;20.890;2024-01-30T09:57:53;17.63;;;9.93;;
42084;SDS011;27746;52.228;20.890;2024-01-30T10:00:20;21.42;;;9.45;;
42084;SDS011;27746;52.228;20.890;2024-01-30T10:02:52;19.85;;;10.32;;
42084;SDS011;27746;52.228;20.890;2024-01-30T10:05:20;18.15;;;10.20;;
42084;SDS011;27746;52.228;20.890;2024-01-30T10:07:53;19.70;;;10.32;;
42084;SDS011;27746;52.228;20.890;2024-01-30T10:10:21;22.13;;;9.70;;
42084;SDS011;27746;52.228;20.890;2024-01-30T10:12:49;17.42;;;8.90;;
42084;SDS011;27746;52.228;20.890;2024-01-30T10:15:17;18.88;;;10.50;;
42084;SDS011;27746;52.228;20.890;2024-01-30T10:17:44;16.10;;;9.68;;
42084;SDS011;27746;52.228;20.890;2024-01-30T10:20:12;17.90;;;10.18;;
42084;SDS011;27746;52.228;20.890;2024-01-30T10:22:41;18.40;;;9.65;;
42084;SDS011;27746;52.228;20.890;2024-01-30T10:25:09;17.92;;;9.50;;
42084;SDS011;27746;52.228;20.890;2024-01-30T10:27:38;20.50;;;10.68;;
42084;SDS011;27746;52.228;20.890;2024-01-30T10:30:06;16.70;;;9.60;;
42084;SDS011;27746;52.228;20.890;2024-01-30T10:32:34;20.33;;;9.15;;
42084;SDS011;27746;52.228;20.890;2024-01-30T10:35:01;17.45;;;10.10;;
42084;SDS011;27746;52.228;20.890;2024-01-30T10:37:28;17.10;;;9.52;;
42084;SDS011;27746;52.228;20.890;2024-01-30T10:40:00;15.35;;;9.80;;
42084;SDS011;27746;52.228;20.890;2024-01-30T10:42:30;18.98;;;9.48;;
42084;SDS011;27746;52.228;20.890;2024-01-30T10:45:00;18.30;;;9.23;;
42084;SDS011;27746;52.228;20.890;2024-01-30T10:47:28;15.95;;;9.20;;
42084;SDS011;27746;52.228;20.890;2024-01-30T10:49:56;14.88;;;9.07;;
42084;SDS011;27746;52.228;20.890;2024-01-30T10:52:24;19.33;;;9.50;;
42084;SDS011;27746;52.228;20.890;2024-01-30T10:54:53;14.55;;;9.85;;
42084;SDS011;27746;52.228;20.890;2024-01-30T10:57:22;23.10;;;10.20;;
42084;SDS011;27746;52.228;20.890;2024-01-30T10:59:49;18.65;;;10.32;;
42084;SDS011;27746;52.228;20.890;2024-01-30T11:02:19;19.75;;;9.90;;
42084;SDS011;27746;52.228;20.890;2024-01-30T11:04:46;22.60;;;10.90;;
42084;SDS011;27746;52.228;20.890;2024-01-30T11:07:14;19.17;;;11.00;;
42084;SDS011;27746;52.228;20.890;2024-01-30T11:09:47;19.25;;;10.13;;
42084;SDS011;27746;52.228;20.890;2024-01-30T11:12:16;18.83;;;9.82;;
42084;SDS011;27746;52.228;20.890;2024-01-30T11:14:44;17.05;;;10.85;;
42084;SDS011;27746;52.228;20.890;2024-01-30T11:17:11;17.92;;;10.10;;
42084;SDS011;27746;52.228;20.890;2024-01-30T11:19:41;17.63;;;10.63;;
42084;SDS011;27746;52.228;20.890;2024-01-30T11:22:08;19.55;;;10.30;;
42084;SDS011;27746;52.228;20.890;2024-01-30T11:24:41;17.48;;;10.23;;
42084;SDS011;27746;52.228;20.890;2024-01-30T11:27:08;16.50;;;10.48;;
42084;SDS011;27746;52.228;20.890;2024-01-30T11:29:37;16.63;;;9.57;;
42084;SDS011;27746;52.228;20.890;2024-01-30T11:32:06;15.73;;;10.20;;
42084;SDS011;27746;52.228;20.890;2024-01-30T11:34:33;20.40;;;9.77;;
42084;SDS011;27746;52.228;20.890;2024-01-30T11:37:03;19.30;;;10.73;;
42084;SDS011;27746;52.228;20.890;2024-01-30T11:39:30;15.15;;;9.57;;
42084;SDS011;27746;52.228;20.890;2024-01-30T11:41:58;17.63;;;9.52;;
42084;SDS011;27746;52.228;20.890;2024-01-30T11:44:25;17.40;;;9.57;;
42084;SDS011;27746;52.228;20.890;2024-01-30T11:46:53;19.38;;;9.90;;
42084;SDS011;27746;52.228;20.890;2024-01-30T11:49:21;17.50;;;10.35;;
42084;SDS011;27746;52.228;20.890;2024-01-30T11:51:50;16.27;;;9.90;;
42084;SDS011;27746;52.228;20.890;2024-01-30T11:54:18;16.88;;;10.02;;
42084;SDS011;27746;52.228;20.890;2024-01-30T11:56:45;17.30;;;10.63;;
42084;SDS011;27746;52.228;20.890;2024-01-30T11:59:13;13.55;;;8.68;;
42084;SDS011;27746;52.228;20.890;2024-01-30T12:01:40;15.75;;;9.35;;
42084;SDS011;27746;52.228;20.890;2024-01-30T12:04:08;19.60;;;10.05;;
42084;SDS011;27746;52.228;20.890;2024-01-30T12:06:37;21.63;;;10.00;;
42084;SDS011;27746;52.228;20.890;2024-01-30T12:09:04;16.20;;;9.25;;
42084;SDS011;27746;52.228;20.890;2024-01-30T12:11:33;19.23;;;10.57;;
42084;SDS011;27746;52.228;20.890;2024-01-30T12:14:10;17.92;;;9.80;;
42084;SDS011;27746;52.228;20.890;2024-01-30T12:16:38;13.82;;;8.90;;
42084;SDS011;27746;52.228;20.890;2024-01-30T12:19:06;16.88;;;9.55;;
42084;SDS011;27746;52.228;20.890;2024-01-30T12:21:33;15.85;;;9.68;;
42084;SDS011;27746;52.228;20.890;2024-01-30T12:24:03;16.42;;;9.85;;
42084;SDS011;27746;52.228;20.890;2024-01-30T12:26:32;20.52;;;9.75;;
42084;SDS011;27746;52.228;20.890;2024-01-30T12:28:59;18.20;;;9.70;;
42084;SDS011;27746;52.228;20.890;2024-01-30T12:31:26;16.45;;;9.85;;
42084;SDS011;27746;52.228;20.890;2024-01-30T12:33:53;14.48;;;9.15;;
42084;SDS011;27746;52.228;20.890;2024-01-30T12:36:21;17.40;;;9.93;;
42084;SDS011;27746;52.228;20.890;2024-01-30T12:38:49;18.17;;;10.20;;
42084;SDS011;27746;52.228;20.890;2024-01-30T12:41:19;16.70;;;9.43;;
42084;SDS011;27746;52.228;20.890;2024-01-30T12:43:46;16.75;;;10.20;;
42084;SDS011;27746;52.228;20.890;2024-01-30T12:46:13;14.70;;;9.50;;
42084;SDS011;27746;52.228;20.890;2024-01-30T12:48:43;19.02;;;10.25;;
42084;SDS011;27746;52.228;20.890;2024-01-30T12:51:10;23.10;;;10.75;;
42084;SDS011;27746;52.228;20.890;2024-01-30T12:53:38;18.50;;;9.40;;
42084;SDS011;27746;52.228;20.890;2024-01-30T12:56:05;19.48;;;10.75;;
42084;SDS011;27746;52.228;20.890;2024-01-30T12:58:34;16.45;;;9.75;;
42084;SDS011;27746;52.228;20.890;2024-01-30T13:01:01;18.38;;;10.32;;
42084;SDS011;27746;52.228;20.890;2024-01-30T13:03:28;16.85;;;8.93;;
42084;SDS011;27746;52.228;20.890;2024-01-30T13:05:56;14.25;;;9.25;;
42084;SDS011;27746;52.228;20.890;2024-01-30T13:08:23;16.92;;;10.80;;
42084;SDS011;27746;52.228;20.890;2024-01-30T13:10:51;19.20;;;10.05;;
42084;SDS011;27746;52.228;20.890;2024-01-30T13:13:18;15.52;;;9.63;;
42084;SDS011;27746;52.228;20.890;2024-01-30T13:15:46;15.38;;;9.65;;
42084;SDS011;27746;52.228;20.890;2024-01-30T13:18:14;15.80;;;9.63;;
42084;SDS011;27746;52.228;20.890;2024-01-30T13:20:41;19.58;;;10.65;;
42084;SDS011;27746;52.228;20.890;2024-01-30T13:23:07;17.52;;;10.32;;
42084;SDS011;27746;52.228;20.890;2024-01-30T13:25:34;20.70;;;10.45;;
42084;SDS011;27746;52.228;20.890;2024-01-30T13:28:02;19.38;;;9.68;;
42084;SDS011;27746;52.228;20.890;2024-01-30T13:30:29;16.52;;;9.77;;
42084;SDS011;27746;52.228;20.890;2024-01-30T13:32:57;17.17;;;10.40;;
42084;SDS011;27746;52.228;20.890;2024-01-30T13:35:25;19.02;;;9.75;;
42084;SDS011;27746;52.228;20.890;2024-01-30T13:37:52;15.98;;;9.75;;
42084;SDS011;27746;52.228;20.890;2024-01-30T13:40:19;23.20;;;11.10;;
42084;SDS011;27746;52.228;20.890;2024-01-30T13:42:47;16.30;;;9.23;;
42084;SDS011;27746;52.228;20.890;2024-01-30T13:45:14;18.88;;;10.80;;
42084;SDS011;27746;52.228;20.890;2024-01-30T13:47:41;17.10;;;10.13;;
42084;SDS011;27746;52.228;20.890;2024-01-30T13:50:10;18.55;;;11.07;;
42084;SDS011;27746;52.228;20.890;2024-01-30T13:52:40;21.40;;;10.57;;
42084;SDS011;27746;52.228;20.890;2024-01-30T13:55:07;21.90;;;11.02;;
42084;SDS011;27746;52.228;20.890;2024-01-30T13:57:34;20.98;;;10.45;;
42084;SDS011;27746;52.228;20.890;2024-01-30T14:00:02;23.65;;;11.30;;
42084;SDS011;27746;52.228;20.890;2024-01-30T14:02:30;22.00;;;10.40;;
42084;SDS011;27746;52.228;20.890;2024-01-30T14:04:57;20.58;;;10.95;;
42084;SDS011;27746;52.228;20.890;2024-01-30T14:07:26;19.80;;;10.45;;
42084;SDS011;27746;52.228;20.890;2024-01-30T14:09:52;20.15;;;10.93;;
42084;SDS011;27746;52.228;20.890;2024-01-30T14:12:19;20.05;;;10.75;;